createdAt,value
2022-09-28T00:00:47.591Z,2.37
2022-09-28T00:03:15.400Z,2.70
2022-09-28T00:05:48.307Z,2.47
2022-09-28T00:08:16.120Z,2.30
2022-09-28T00:10:45.787Z,2.20
2022-09-28T00:13:14.917Z,2.83
2022-09-28T00:15:44.818Z,2.30
2022-09-28T00:18:13.057Z,2.60
2022-09-28T00:20:43.670Z,3.40
2022-09-28T00:23:16.964Z,4.40
2022-09-28T00:25:51.858Z,3.00
2022-09-28T00:28:21.463Z,3.80
2022-09-28T00:30:51.642Z,3.10
2022-09-28T00:33:19.433Z,4.60
2022-09-28T00:35:50.130Z,4.27
2022-09-28T00:38:17.922Z,4.00
2022-09-28T00:40:45.848Z,4.50
2022-09-28T00:43:23.492Z,4.33
2022-09-28T00:45:59.730Z,4.20
2022-09-28T00:48:35.452Z,4.10
2022-09-28T00:51:09.060Z,4.13
2022-09-28T00:53:40.562Z,4.00
2022-09-28T00:56:17.040Z,4.40
2022-09-28T00:58:53.063Z,4.20
2022-09-28T01:01:23.555Z,4.27
2022-09-28T01:03:54.746Z,4.33
2022-09-28T01:06:24.587Z,4.20
2022-09-28T01:08:57.054Z,4.20
2022-09-28T01:11:40.050Z,3.60
2022-09-28T01:14:32.617Z,3.63
2022-09-28T01:17:12.676Z,3.10
2022-09-28T01:20:14.564Z,3.60
2022-09-28T01:23:15.851Z,3.20
2022-09-28T01:26:22.042Z,3.23
2022-09-28T01:28:57.571Z,2.90
2022-09-28T01:31:31.661Z,2.67
2022-09-28T01:34:07.143Z,3.10
2022-09-28T01:36:46.301Z,3.13
2022-09-28T01:39:17.688Z,2.83
2022-09-28T01:41:52.290Z,3.13
2022-09-28T01:44:23.802Z,2.90
2022-09-28T01:47:01.214Z,3.40
2022-09-28T01:49:34.213Z,3.13
2022-09-28T01:52:05.786Z,4.03
2022-09-28T01:54:42.800Z,4.03
2022-09-28T01:57:19.231Z,3.50
2022-09-28T01:59:54.251Z,5.10
2022-09-28T02:02:29.435Z,5.30
2022-09-28T02:05:03.040Z,4.50
2022-09-28T02:07:38.430Z,4.63
2022-09-28T02:10:16.187Z,4.57
2022-09-28T02:12:54.593Z,4.27
2022-09-28T02:15:27.967Z,4.77
2022-09-28T02:17:56.077Z,5.10
2022-09-28T02:20:30.502Z,5.10
2022-09-28T02:23:00.747Z,5.77
2022-09-28T02:25:38.097Z,6.53
2022-09-28T02:28:09.350Z,6.20
2022-09-28T02:30:42.032Z,5.50
2022-09-28T02:33:14.774Z,4.90
2022-09-28T02:35:48.568Z,4.80
2022-09-28T02:38:19.409Z,4.50
2022-09-28T02:40:56.314Z,5.70
2022-09-28T02:43:33.009Z,5.30
2022-09-28T02:46:10.982Z,5.20
2022-09-28T02:49:10.690Z,6.10
2022-09-28T02:52:00.017Z,6.50
2022-09-28T02:55:11.046Z,6.83
2022-09-28T02:57:50.708Z,8.70
2022-09-28T03:00:24.138Z,6.70
2022-09-28T03:03:01.984Z,7.30
2022-09-28T03:05:36.659Z,8.70
2022-09-28T03:08:13.154Z,8.57
2022-09-28T03:10:45.658Z,6.70
2022-09-28T03:13:16.330Z,8.50
2022-09-28T03:15:49.131Z,9.30
2022-09-28T03:21:00.607Z,10.07
2022-09-28T03:23:28.886Z,10.83
2022-09-28T03:25:56.899Z,11.03
2022-09-28T03:28:34.953Z,11.07
2022-09-28T03:31:04.296Z,11.70
2022-09-28T03:33:32.335Z,12.37
2022-09-28T03:36:00.140Z,12.87
2022-09-28T03:38:27.937Z,11.93
2022-09-28T03:40:56.643Z,13.87
2022-09-28T03:43:28.034Z,13.10
2022-09-28T03:45:59.263Z,15.97
2022-09-28T03:48:32.583Z,13.97
2022-09-28T03:51:02.390Z,14.73
2022-09-28T03:53:30.549Z,15.10
2022-09-28T03:56:06.340Z,14.87
2022-09-28T03:58:36.704Z,16.13
2022-09-28T04:01:05.837Z,15.87
2022-09-28T04:03:35.852Z,14.70
2022-09-28T04:06:06.946Z,14.23
2022-09-28T04:08:34.787Z,14.80
2022-09-28T04:11:02.994Z,14.73
2022-09-28T04:13:32.061Z,15.53
2022-09-28T04:16:04.517Z,15.20
2022-09-28T04:18:37.447Z,14.57
2022-09-28T04:21:09.627Z,14.57
2022-09-28T04:23:40.037Z,12.93
2022-09-28T04:26:12.574Z,13.43
2022-09-28T04:28:59.129Z,10.60
2022-09-28T04:31:37.176Z,10.67
2022-09-28T04:34:06.781Z,12.07
2022-09-28T04:36:42.073Z,13.60
2022-09-28T04:39:12.356Z,12.60
2022-09-28T04:41:47.668Z,12.40
2022-09-28T04:44:15.753Z,14.03
2022-09-28T04:46:52.173Z,14.77
2022-09-28T04:49:23.646Z,13.30
2022-09-28T04:51:56.986Z,13.43
2022-09-28T04:54:27.522Z,15.23
2022-09-28T04:56:55.753Z,15.30
2022-09-28T04:59:23.547Z,15.20
2022-09-28T05:01:51.395Z,17.07
2022-09-28T05:04:25.840Z,17.83
2022-09-28T05:07:07.125Z,16.40
2022-09-28T05:09:38.428Z,18.03
2022-09-28T05:12:06.619Z,18.20
2022-09-28T05:14:34.866Z,20.23
2022-09-28T05:17:05.966Z,21.57
2022-09-28T05:19:35.227Z,20.50
2022-09-28T05:22:11.295Z,23.33
2022-09-28T05:24:43.078Z,21.27
2022-09-28T05:27:13.377Z,23.37
2022-09-28T05:29:44.619Z,20.43
2022-09-28T05:32:19.735Z,21.47
2022-09-28T05:34:47.979Z,20.93
2022-09-28T05:37:17.160Z,24.00
2022-09-28T05:39:45.382Z,23.13
2022-09-28T05:42:13.183Z,18.87
2022-09-28T05:44:40.991Z,19.97
2022-09-28T05:47:09.236Z,18.40
2022-09-28T05:49:37.030Z,18.87
2022-09-28T05:52:07.667Z,18.50
2022-09-28T05:54:36.852Z,20.00
2022-09-28T05:57:06.847Z,19.03
2022-09-28T05:59:36.076Z,19.37
2022-09-28T06:02:04.410Z,19.63
2022-09-28T06:04:32.453Z,18.60
2022-09-28T06:07:00.290Z,18.20
2022-09-28T06:09:32.269Z,18.10
2022-09-28T06:12:01.809Z,20.03
2022-09-28T06:14:29.590Z,18.23
2022-09-28T06:16:57.823Z,16.27
2022-09-28T06:19:27.724Z,14.53
2022-09-28T06:21:57.547Z,17.70
2022-09-28T06:24:30.026Z,15.30
2022-09-28T06:26:57.895Z,14.40
2022-09-28T06:29:27.435Z,15.47
2022-09-28T06:31:56.011Z,14.30
2022-09-28T06:34:24.694Z,18.10
2022-09-28T06:36:53.405Z,15.27
2022-09-28T06:39:21.223Z,18.37
2022-09-28T06:41:51.054Z,16.43
2022-09-28T06:44:19.348Z,15.77
2022-09-28T06:46:50.557Z,16.00
2022-09-28T06:49:28.096Z,17.03
2022-09-28T06:51:55.911Z,15.97
2022-09-28T06:54:25.672Z,16.23
2022-09-28T06:56:53.985Z,19.60
2022-09-28T06:59:21.900Z,17.90
2022-09-28T07:01:51.110Z,18.77
2022-09-28T07:04:26.035Z,19.60
2022-09-28T07:06:54.178Z,17.83
2022-09-28T07:09:32.158Z,21.90
2022-09-28T07:12:10.319Z,19.70
2022-09-28T07:14:47.876Z,20.30
2022-09-28T07:17:18.123Z,19.63
2022-09-28T07:19:46.505Z,20.23
2022-09-28T07:22:18.504Z,20.57
2022-09-28T07:24:48.795Z,23.33
2022-09-28T07:27:16.635Z,23.00
2022-09-28T07:29:47.202Z,20.90
2022-09-28T07:32:14.992Z,23.37
2022-09-28T07:34:44.574Z,24.53
2022-09-28T07:37:15.793Z,24.10
2022-09-28T07:40:01.177Z,25.67
2022-09-28T07:42:30.683Z,23.60
2022-09-28T07:45:01.151Z,21.60
2022-09-28T07:47:35.410Z,23.93
2022-09-28T07:50:05.039Z,24.10
2022-09-28T07:52:36.150Z,25.63
2022-09-28T07:55:07.320Z,26.10
2022-09-28T07:57:36.810Z,25.37
2022-09-28T08:00:08.033Z,23.10
2022-09-28T08:02:36.385Z,22.97
2022-09-28T08:05:11.925Z,24.60
2022-09-28T08:07:39.765Z,26.27
2022-09-28T08:10:10.991Z,27.33
2022-09-28T08:12:40.662Z,25.83
2022-09-28T08:15:10.365Z,27.63
2022-09-28T08:20:42.566Z,25.60
2022-09-28T08:23:11.876Z,27.43
2022-09-28T08:25:39.673Z,27.97
2022-09-28T08:28:08.931Z,26.47
2022-09-28T08:30:36.818Z,25.90
2022-09-28T08:33:14.998Z,24.80
2022-09-28T08:35:44.549Z,27.63
2022-09-28T08:38:15.500Z,25.40
2022-09-28T08:40:51.389Z,26.67
2022-09-28T08:43:51.574Z,26.20
2022-09-28T08:46:34.273Z,26.20
2022-09-28T08:49:24.873Z,27.87
2022-09-28T08:52:02.016Z,26.60
2022-09-28T08:54:38.020Z,25.47
2022-09-28T08:57:13.451Z,24.77
2022-09-28T08:59:51.643Z,25.33
2022-09-28T09:02:25.342Z,26.60
2022-09-28T09:04:54.449Z,27.03
2022-09-28T09:07:46.681Z,23.47
2022-09-28T09:10:28.609Z,20.97
2022-09-28T09:13:09.394Z,23.10
2022-09-28T09:15:50.871Z,23.10
2022-09-28T09:18:25.396Z,26.10
2022-09-28T09:20:57.388Z,22.27
2022-09-28T09:23:39.557Z,21.33
2022-09-28T09:26:22.386Z,21.07
2022-09-28T09:29:22.883Z,22.03
2022-09-28T09:32:07.183Z,22.10
2022-09-28T09:34:45.867Z,22.07
2022-09-28T09:37:30.395Z,23.40
2022-09-28T09:40:23.131Z,22.20
2022-09-28T09:43:06.119Z,22.97
2022-09-28T09:46:01.261Z,22.50
2022-09-28T09:48:36.869Z,22.70
2022-09-28T09:51:12.488Z,21.60
2022-09-28T09:53:47.680Z,20.23
2022-09-28T09:56:21.566Z,19.30
2022-09-28T09:58:54.587Z,17.50
2022-09-28T10:01:32.614Z,17.03
2022-09-28T10:04:01.956Z,19.13
2022-09-28T10:06:35.565Z,19.20
2022-09-28T10:09:06.899Z,23.07
2022-09-28T10:11:40.595Z,24.40
2022-09-28T10:14:16.786Z,22.50
2022-09-28T10:16:51.239Z,21.60
2022-09-28T10:19:21.700Z,19.27
2022-09-28T10:21:51.608Z,18.60
2022-09-28T10:24:28.857Z,18.03
2022-09-28T10:27:11.416Z,15.10
2022-09-28T10:29:47.470Z,11.30
2022-09-28T10:32:24.174Z,10.93
2022-09-28T10:35:12.710Z,10.27
2022-09-28T10:37:49.169Z,10.23
2022-09-28T10:40:39.183Z,10.30
2022-09-28T10:43:19.733Z,9.10
2022-09-28T10:45:48.153Z,9.33
2022-09-28T10:51:08.441Z,9.10
2022-09-28T10:53:37.408Z,11.37
2022-09-28T10:56:20.125Z,8.40
2022-09-28T10:58:51.400Z,7.40
2022-09-28T11:01:25.339Z,6.30
2022-09-28T11:03:56.353Z,4.70
2022-09-28T11:06:30.291Z,4.33
2022-09-28T11:09:00.748Z,4.30
2022-09-28T11:11:30.108Z,4.80
2022-09-28T11:14:04.700Z,5.00
2022-09-28T11:16:34.514Z,4.77
2022-09-28T11:19:06.704Z,3.43
2022-09-28T11:21:44.680Z,4.97
2022-09-28T11:24:26.399Z,3.30
2022-09-28T11:26:57.799Z,3.57
2022-09-28T11:29:43.073Z,3.90
2022-09-28T11:35:04.651Z,4.70
2022-09-28T11:38:03.439Z,9.63
2022-09-28T11:40:45.579Z,9.10
2022-09-28T11:43:23.207Z,9.80
2022-09-28T11:46:05.372Z,9.27
2022-09-28T11:48:49.978Z,9.00
2022-09-28T11:51:24.268Z,8.67
2022-09-28T11:53:56.449Z,10.10
2022-09-28T11:56:34.910Z,9.90
2022-09-28T11:59:10.785Z,10.30
2022-09-28T12:01:43.608Z,9.77
2022-09-28T12:04:17.994Z,11.30
2022-09-28T12:06:50.720Z,10.57
2022-09-28T12:09:24.029Z,8.83
2022-09-28T12:11:56.786Z,8.60
2022-09-28T12:14:30.789Z,8.47
2022-09-28T12:17:20.000Z,7.20
2022-09-28T12:19:51.950Z,7.43
2022-09-28T12:22:24.596Z,7.80
2022-09-28T12:24:56.346Z,7.20
2022-09-28T12:27:31.129Z,5.87
2022-09-28T12:30:04.586Z,6.30
2022-09-28T12:32:40.483Z,5.77
2022-09-28T12:35:16.408Z,5.60
2022-09-28T12:38:09.067Z,4.93
2022-09-28T12:40:50.292Z,4.53
2022-09-28T12:43:54.623Z,5.27
2022-09-28T12:46:49.522Z,4.67
2022-09-28T12:55:56.651Z,7.27
2022-09-28T12:58:46.169Z,6.50
2022-09-28T13:01:29.872Z,6.27
2022-09-28T13:04:23.378Z,6.70
2022-09-28T13:07:02.642Z,6.73
2022-09-28T13:09:41.856Z,7.77
2022-09-28T13:12:27.066Z,7.23
2022-09-28T13:15:18.591Z,7.30
2022-09-28T13:17:55.416Z,6.90
2022-09-28T13:20:32.816Z,7.77
2022-09-28T13:23:15.506Z,8.10
2022-09-28T13:25:50.279Z,6.43
2022-09-28T13:28:26.184Z,7.93
2022-09-28T13:31:05.465Z,6.30
2022-09-28T13:33:36.880Z,6.90
2022-09-28T13:36:16.964Z,5.30
2022-09-28T13:38:53.619Z,6.00
2022-09-28T13:41:28.907Z,4.83
2022-09-28T13:44:34.774Z,5.70
2022-09-28T13:47:21.164Z,5.77
2022-09-28T13:50:03.724Z,6.73
2022-09-28T13:52:46.710Z,5.47
2022-09-28T13:55:33.263Z,5.70
2022-09-28T13:58:12.172Z,5.50
2022-09-28T14:00:47.551Z,5.80
2022-09-28T14:03:30.019Z,4.60
2022-09-28T14:06:23.671Z,4.93
2022-09-28T14:09:20.690Z,4.97
2022-09-28T14:11:58.147Z,3.73
2022-09-28T14:14:47.904Z,3.93
2022-09-28T14:17:50.433Z,3.37
2022-09-28T14:20:20.657Z,3.40
2022-09-28T14:23:24.162Z,3.90
2022-09-28T14:26:23.510Z,3.47
2022-09-28T14:29:10.055Z,3.40
2022-09-28T14:31:43.293Z,4.17
2022-09-28T14:34:26.578Z,4.17
2022-09-28T14:37:11.986Z,4.00
2022-09-28T14:40:02.884Z,4.30
2022-09-28T14:42:32.933Z,3.23
2022-09-28T14:45:36.168Z,3.13
2022-09-28T14:48:23.276Z,3.67
2022-09-28T14:50:56.147Z,2.90
2022-09-28T14:53:25.502Z,3.00
2022-09-28T14:55:58.278Z,3.70
2022-09-28T14:58:29.636Z,3.97
2022-09-28T15:01:10.219Z,3.93
2022-09-28T15:03:42.803Z,3.50
2022-09-28T15:06:16.826Z,3.00
2022-09-28T15:08:44.633Z,2.93
2022-09-28T15:11:18.310Z,3.60
2022-09-28T15:13:46.969Z,3.77
2022-09-28T15:16:20.348Z,3.27
2022-09-28T15:19:21.276Z,3.40
2022-09-28T15:21:52.586Z,3.50
2022-09-28T15:24:31.115Z,3.20
2022-09-28T15:26:59.746Z,2.93
2022-09-28T15:29:31.648Z,3.03
2022-09-28T15:32:24.737Z,4.00
2022-09-28T15:34:54.814Z,3.70
2022-09-28T15:37:24.647Z,3.40
2022-09-28T15:39:55.061Z,4.17
2022-09-28T15:42:23.659Z,3.30
2022-09-28T15:45:24.491Z,3.40
2022-09-28T15:47:58.362Z,3.10
2022-09-28T15:50:28.951Z,3.03
2022-09-28T15:53:01.171Z,2.67
2022-09-28T15:55:31.700Z,2.60
2022-09-28T15:58:08.112Z,2.90
2022-09-28T16:00:36.258Z,2.73
2022-09-28T16:03:24.120Z,2.80
2022-09-28T16:05:53.512Z,2.50
2022-09-28T16:08:47.695Z,2.20
2022-09-28T16:11:19.331Z,3.03
2022-09-28T16:13:56.164Z,2.50
2022-09-28T16:16:31.083Z,2.57
2022-09-28T16:19:02.138Z,2.37
2022-09-28T16:21:43.038Z,1.90
2022-09-28T16:24:21.242Z,2.43
2022-09-28T16:26:55.921Z,2.30
2022-09-28T16:29:28.175Z,2.30
2022-09-28T16:31:56.634Z,1.80
2022-09-28T16:34:28.487Z,2.27
2022-09-28T16:36:56.796Z,2.47
2022-09-28T16:39:25.424Z,1.90
2022-09-28T16:41:57.173Z,1.70
2022-09-28T16:44:30.534Z,1.63
2022-09-28T16:47:01.144Z,1.60
2022-09-28T16:49:32.110Z,2.60
2022-09-28T16:52:00.708Z,1.57
2022-09-28T16:54:50.117Z,1.63
2022-09-28T16:57:18.387Z,1.60
2022-09-28T16:59:51.965Z,1.67
2022-09-28T17:02:49.669Z,1.63
2022-09-28T17:05:20.449Z,1.40
2022-09-28T17:07:52.167Z,2.00
2022-09-28T17:10:27.185Z,2.27
2022-09-28T17:12:58.213Z,2.10
2022-09-28T17:15:26.115Z,2.30
2022-09-28T17:17:55.519Z,1.50
2022-09-28T17:20:31.237Z,1.60
2022-09-28T17:22:59.206Z,1.83
2022-09-28T17:25:35.116Z,1.77
2022-09-28T17:28:04.213Z,1.80
2022-09-28T17:30:32.083Z,1.93
2022-09-28T17:33:01.742Z,1.90
2022-09-28T17:35:38.846Z,2.00
2022-09-28T17:38:15.586Z,1.93
2022-09-28T17:40:48.017Z,2.30
2022-09-28T17:43:15.945Z,2.53
2022-09-28T17:45:47.370Z,2.90
2022-09-28T17:48:23.727Z,2.70
2022-09-28T17:50:55.329Z,2.30
2022-09-28T17:53:23.144Z,1.90
2022-09-28T17:55:53.735Z,2.30
2022-09-28T17:58:23.158Z,2.40
2022-09-28T18:00:52.600Z,2.20
2022-09-28T18:03:25.097Z,2.60
2022-09-28T18:06:03.296Z,2.70
2022-09-28T18:08:33.360Z,2.20
2022-09-28T18:11:01.673Z,2.90
2022-09-28T18:13:29.532Z,2.37
2022-09-28T18:15:57.884Z,2.77
2022-09-28T18:18:26.887Z,2.90
2022-09-28T18:20:56.042Z,2.13
2022-09-28T18:23:31.087Z,2.30
2022-09-28T18:25:59.316Z,2.30
2022-09-28T18:28:29.619Z,2.40
2022-09-28T18:30:57.466Z,2.50
2022-09-28T18:33:25.301Z,3.37
2022-09-28T18:35:58.128Z,4.47
2022-09-28T18:38:28.064Z,3.60
2022-09-28T18:40:56.426Z,3.77
2022-09-28T18:43:24.864Z,2.70
2022-09-28T18:45:56.445Z,2.87
2022-09-28T18:48:30.395Z,2.50
2022-09-28T18:50:59.562Z,2.70
2022-09-28T18:53:28.833Z,2.57
2022-09-28T18:55:57.804Z,4.60
2022-09-28T18:58:25.691Z,4.50
2022-09-28T19:01:04.094Z,4.17
2022-09-28T19:03:44.368Z,3.47
2022-09-28T19:06:23.409Z,3.23
2022-09-28T19:08:53.672Z,3.10
2022-09-28T19:11:21.479Z,3.30
2022-09-28T19:13:49.879Z,2.70
2022-09-28T19:16:20.573Z,4.57
2022-09-28T19:18:48.756Z,3.90
2022-09-28T19:21:18.540Z,3.53
2022-09-28T19:23:49.871Z,2.30
2022-09-28T19:26:25.281Z,2.60
2022-09-28T19:28:53.696Z,2.40
2022-09-28T19:31:22.915Z,2.33
2022-09-28T19:33:54.118Z,2.20
2022-09-28T19:36:25.383Z,2.33
2022-09-28T19:38:53.709Z,2.57
2022-09-28T19:41:45.915Z,2.77
2022-09-28T19:44:21.080Z,2.43
2022-09-28T19:46:51.259Z,2.30
2022-09-28T19:49:22.433Z,2.80
2022-09-28T19:52:13.751Z,1.90
2022-09-28T19:54:44.272Z,2.30
2022-09-28T19:57:15.851Z,1.70
2022-09-28T19:59:43.938Z,2.20
2022-09-28T20:02:13.923Z,2.87
2022-09-28T20:04:48.021Z,2.60
2022-09-28T20:07:22.695Z,5.60
2022-09-28T20:09:50.486Z,2.00
2022-09-28T20:12:18.287Z,2.93
2022-09-28T20:14:49.726Z,2.83
2022-09-28T20:17:17.701Z,3.93
2022-09-28T20:19:45.593Z,4.23
2022-09-28T20:22:14.012Z,3.03
2022-09-28T20:24:43.219Z,3.37
2022-09-28T20:27:16.200Z,2.50
2022-09-28T20:29:46.614Z,2.60
2022-09-28T20:32:20.281Z,3.00
2022-09-28T20:34:48.070Z,2.20
2022-09-28T20:37:17.396Z,2.70
2022-09-28T20:39:47.251Z,2.40
2022-09-28T20:42:15.451Z,2.80
2022-09-28T20:44:43.587Z,2.63
2022-09-28T20:47:11.991Z,2.67
2022-09-28T20:49:39.805Z,2.70
2022-09-28T20:52:07.599Z,2.20
2022-09-28T20:54:38.580Z,3.10
2022-09-28T20:57:17.279Z,3.17
2022-09-28T20:59:45.450Z,2.97
2022-09-28T21:02:14.514Z,3.40
2022-09-28T21:04:44.937Z,4.23
2022-09-28T21:07:13.131Z,4.17
2022-09-28T21:09:40.937Z,3.60
2022-09-28T21:12:10.573Z,3.30
2022-09-28T21:14:38.797Z,3.30
2022-09-28T21:17:09.582Z,3.30
2022-09-28T21:19:39.479Z,4.07
2022-09-28T21:22:17.718Z,3.50
2022-09-28T21:24:45.536Z,4.50
2022-09-28T21:27:23.176Z,4.83
2022-09-28T21:29:50.967Z,4.40
2022-09-28T21:32:20.864Z,3.50
2022-09-28T21:34:50.694Z,3.77
2022-09-28T21:37:21.371Z,4.60
2022-09-28T21:39:49.564Z,4.20
2022-09-28T21:42:23.045Z,3.93
2022-09-28T21:44:50.902Z,3.80
2022-09-28T21:47:18.685Z,3.90
2022-09-28T21:49:51.194Z,3.73
2022-09-28T21:52:22.320Z,3.70
2022-09-28T21:54:52.420Z,4.60
2022-09-28T21:57:25.120Z,4.40
2022-09-28T21:59:52.955Z,3.93
2022-09-28T22:02:23.288Z,3.77
2022-09-28T22:04:53.979Z,3.73
2022-09-28T22:07:21.787Z,3.50
2022-09-28T22:09:53.426Z,4.57
2022-09-28T22:12:26.022Z,3.80
2022-09-28T22:14:53.810Z,4.17
2022-09-28T22:17:21.578Z,3.63
2022-09-28T22:19:49.397Z,4.20
2022-09-28T22:22:17.499Z,4.23
2022-09-28T22:24:45.685Z,4.57
2022-09-28T22:27:15.320Z,4.80
2022-09-28T22:29:49.501Z,4.93
2022-09-28T22:32:17.367Z,5.07
2022-09-28T22:34:45.171Z,4.00
2022-09-28T22:37:13.379Z,5.10
2022-09-28T22:39:41.189Z,5.30
2022-09-28T22:42:09.188Z,6.13
2022-09-28T22:44:40.500Z,5.43
2022-09-28T22:47:12.847Z,7.00
2022-09-28T22:49:43.033Z,5.43
2022-09-28T22:52:10.835Z,5.40
2022-09-28T22:54:40.780Z,4.87
2022-09-28T22:57:08.920Z,6.37
2022-09-28T22:59:39.126Z,5.90
2022-09-28T23:02:07.439Z,5.30
2022-09-28T23:04:36.687Z,6.20
2022-09-28T23:07:04.600Z,5.63
2022-09-28T23:09:41.203Z,5.97
2022-09-28T23:12:08.978Z,5.90
2022-09-28T23:14:39.699Z,6.40
2022-09-28T23:17:07.519Z,5.80
2022-09-28T23:19:39.346Z,6.53
2022-09-28T23:22:07.180Z,6.33
2022-09-28T23:24:47.110Z,6.40
2022-09-28T23:27:14.971Z,6.10
2022-09-28T23:29:47.235Z,6.00
2022-09-28T23:32:23.520Z,5.70
2022-09-28T23:34:53.559Z,6.37
2022-09-28T23:37:23.395Z,6.53
2022-09-28T23:39:54.331Z,5.50
2022-09-28T23:42:24.921Z,6.00
2022-09-28T23:44:53.153Z,6.30
2022-09-28T23:47:23.987Z,5.50
2022-09-28T23:49:58.341Z,6.93
2022-09-28T23:52:28.869Z,6.43
2022-09-28T23:54:56.635Z,6.20
2022-09-28T23:57:25.283Z,6.03
2022-09-28T23:59:53.683Z,6.10
